createdAt,value
2018-05-31T00:41:38.558Z,101355.91
2018-05-31T00:44:06.215Z,101356.30
2018-05-31T00:46:33.783Z,101361.91
2018-05-31T00:49:01.567Z,101363.23
2018-05-31T00:51:31.976Z,101370.23
2018-05-31T00:57:00.680Z,101369.34
2018-05-31T00:59:36.135Z,101379.93
2018-05-31T01:02:03.767Z,101372.91
2018-05-31T01:04:31.395Z,101370.33
2018-05-31T01:06:59.860Z,101369.48
2018-05-31T01:09:28.965Z,101375.59
2018-05-31T01:11:59.145Z,101372.11
2018-05-31T01:14:27.430Z,101368.66
2018-05-31T01:16:55.010Z,101367.81
2018-05-31T01:19:22.782Z,101367.81
2018-05-31T01:21:50.375Z,101371.80
2018-05-31T01:24:18.063Z,101371.80
2018-05-31T01:26:45.735Z,101364.80
2018-05-31T01:29:13.311Z,101366.53
2018-05-31T01:31:40.975Z,101363.47
2018-05-31T01:34:08.660Z,101359.95
2018-05-31T01:36:36.250Z,101360.84
2018-05-31T01:39:03.836Z,101359.99
2018-05-31T01:41:31.560Z,101362.16
2018-05-31T01:43:59.315Z,101371.34
2018-05-31T01:46:27.007Z,101363.47
2018-05-31T01:48:54.583Z,101363.90
2018-05-31T01:51:22.175Z,101358.20
2018-05-31T01:53:49.715Z,101349.03
2018-05-31T01:56:17.266Z,101347.23
2018-05-31T01:58:44.879Z,101350.72
2018-05-31T02:06:21.243Z,101343.71
2018-05-31T02:11:22.106Z,101336.27
2018-05-31T02:13:49.647Z,101341.92
2018-05-31T02:16:17.199Z,101338.40
2018-05-31T02:18:44.844Z,101337.93
2018-05-31T02:23:45.405Z,101340.91
2018-05-31T02:26:13.157Z,101340.02
2018-05-31T02:28:40.687Z,101336.07
2018-05-31T02:31:08.253Z,101337.34
2018-05-31T02:33:37.764Z,101336.83
2018-05-31T02:36:05.427Z,101331.18
2018-05-31T02:38:32.960Z,101336.41
2018-05-31T02:41:00.707Z,101335.52
2018-05-31T02:43:28.481Z,101338.50
2018-05-31T02:45:56.019Z,101333.66
2018-05-31T02:48:23.578Z,101329.74
2018-05-31T02:50:51.249Z,101327.95
2018-05-31T02:53:18.919Z,101323.50
2018-05-31T02:55:46.594Z,101327.45
2018-05-31T02:58:14.180Z,101326.13
2018-05-31T03:00:41.848Z,101320.39
2018-05-31T03:03:09.396Z,101324.34
2018-05-31T03:05:36.932Z,101321.63
2018-05-31T03:08:04.591Z,101327.37
2018-05-31T03:10:32.179Z,101324.34
2018-05-31T03:13:00.723Z,101318.58
2018-05-31T03:15:28.395Z,101318.53
2018-05-31T03:17:56.102Z,101318.95
2018-05-31T03:20:23.658Z,101315.37
2018-05-31T03:22:51.179Z,101319.38
2018-05-31T03:25:18.781Z,101325.07
2018-05-31T03:27:46.415Z,101322.39
2018-05-31T03:30:14.058Z,101326.81
2018-05-31T03:32:41.714Z,101325.92
2018-05-31T03:35:09.379Z,101326.27
2018-05-31T03:37:36.947Z,101326.39
2018-05-31T03:40:04.500Z,101334.30
2018-05-31T03:42:32.091Z,101332.55
2018-05-31T03:44:59.710Z,101333.88
2018-05-31T03:47:27.341Z,101335.23
2018-05-31T03:49:56.404Z,101330.43
2018-05-31T03:52:24.124Z,101334.81
2018-05-31T03:54:51.648Z,101332.64
2018-05-31T03:57:19.203Z,101328.77
2018-05-31T03:59:46.786Z,101333.56
2018-05-31T04:02:14.415Z,101324.81
2018-05-31T04:04:42.055Z,101333.14
2018-05-31T04:07:09.666Z,101325.70
2018-05-31T04:09:37.239Z,101326.17
2018-05-31T04:12:04.778Z,101328.34
2018-05-31T04:14:32.346Z,101327.95
2018-05-31T04:16:59.874Z,101323.11
2018-05-31T04:19:27.591Z,101340.66
2018-05-31T04:21:55.316Z,101335.82
2018-05-31T04:24:22.863Z,101336.72
2018-05-31T04:26:50.463Z,101341.56
2018-05-31T04:29:18.077Z,101334.97
2018-05-31T04:31:45.622Z,101339.34
2018-05-31T04:34:13.206Z,101338.87
2018-05-31T04:36:40.871Z,101336.67
2018-05-31T04:39:08.461Z,101341.94
2018-05-31T04:41:36.151Z,101345.81
2018-05-31T04:44:05.210Z,101340.97
2018-05-31T04:46:32.784Z,101335.77
2018-05-31T04:49:00.303Z,101337.56
2018-05-31T04:51:27.853Z,101343.72
2018-05-31T04:53:55.456Z,101340.66
2018-05-31T04:56:23.091Z,101341.09
2018-05-31T04:58:50.651Z,101344.19
2018-05-31T05:01:18.441Z,101347.21
2018-05-31T05:03:46.063Z,101347.14
2018-05-31T05:06:13.622Z,101351.94
2018-05-31T05:08:41.200Z,101351.89
2018-05-31T05:11:08.810Z,101348.80
2018-05-31T05:13:36.467Z,101352.70
2018-05-31T05:16:04.063Z,101344.72
2018-05-31T05:18:31.687Z,101351.69
2018-05-31T05:20:59.254Z,101351.22
2018-05-31T05:23:26.867Z,101354.28
2018-05-31T05:25:54.383Z,101355.05
2018-05-31T05:28:22.132Z,101362.92
2018-05-31T05:30:49.854Z,101361.17
2018-05-31T05:33:17.519Z,101368.54
2018-05-31T05:35:46.865Z,101361.91
2018-05-31T05:38:14.459Z,101368.92
2018-05-31T05:40:42.015Z,101362.28
2018-05-31T05:43:09.591Z,101366.66
2018-05-31T05:45:37.207Z,101368.28
2018-05-31T05:48:04.875Z,101371.26
2018-05-31T05:50:32.543Z,101370.70
2018-05-31T05:53:00.175Z,101381.55
2018-05-31T05:55:27.723Z,101380.07
2018-05-31T05:57:55.273Z,101385.14
2018-05-31T06:00:22.827Z,101375.23
2018-05-31T06:02:50.459Z,101379.80
2018-05-31T06:05:18.083Z,101372.48
2018-05-31T06:07:45.727Z,101375.64
2018-05-31T06:10:13.431Z,101374.89
2018-05-31T06:12:40.954Z,101375.52
2018-05-31T06:15:08.582Z,101380.59
2018-05-31T06:17:36.170Z,101381.70
2018-05-31T06:20:06.851Z,101387.28
2018-05-31T06:22:34.504Z,101388.03
2018-05-31T06:25:02.128Z,101387.45
2018-05-31T06:27:29.715Z,101387.28
2018-05-31T06:29:57.354Z,101395.83
2018-05-31T06:32:24.952Z,101397.41
2018-05-31T06:34:52.582Z,101402.39
2018-05-31T06:37:20.251Z,101403.03
2018-05-31T06:39:48.587Z,101405.03
2018-05-31T06:42:17.979Z,101401.33
2018-05-31T06:44:46.241Z,101405.97
2018-05-31T06:47:13.843Z,101403.70
2018-05-31T06:49:41.411Z,101411.08
2018-05-31T06:52:08.945Z,101411.33
2018-05-31T06:54:37.480Z,101416.05
2018-05-31T06:57:05.816Z,101423.84
2018-05-31T06:59:34.384Z,101426.36
2018-05-31T07:02:01.929Z,101429.93
2018-05-31T07:07:22.782Z,101425.16
2018-05-31T07:09:50.310Z,101426.48
2018-05-31T07:12:17.970Z,101430.45
2018-05-31T07:14:45.642Z,101439.26
2018-05-31T07:17:17.607Z,101438.36
2018-05-31T07:19:46.047Z,101438.31
2018-05-31T07:22:13.607Z,101439.20
2018-05-31T07:24:41.160Z,101443.05
2018-05-31T07:27:08.694Z,101444.74
2018-05-31T07:29:36.583Z,101445.94
2018-05-31T07:32:04.731Z,101450.70
2018-05-31T07:34:33.299Z,101444.53
2018-05-31T07:37:03.920Z,101458.20
2018-05-31T07:39:31.442Z,101465.73
2018-05-31T07:42:00.116Z,101461.91
2018-05-31T07:44:27.705Z,101462.97
2018-05-31T07:46:55.355Z,101470.03
2018-05-31T07:49:25.447Z,101466.08
2018-05-31T07:51:54.055Z,101465.44
2018-05-31T07:54:21.743Z,101467.39
2018-05-31T07:56:49.307Z,101470.13
2018-05-31T07:59:16.840Z,101470.28
2018-05-31T08:01:44.486Z,101473.47
2018-05-31T08:04:12.532Z,101475.30
2018-05-31T08:06:40.979Z,101471.73
2018-05-31T08:12:08.427Z,101473.97
2018-05-31T08:14:49.262Z,101480.69
2018-05-31T08:18:59.142Z,101477.04
2018-05-31T08:30:35.407Z,101485.20
2018-05-31T08:33:02.964Z,101485.52
2018-05-31T08:35:31.350Z,101486.86
2018-05-31T08:47:07.995Z,101484.61
2018-05-31T08:49:35.555Z,101487.27
2018-05-31T08:52:03.192Z,101489.50
2018-05-31T09:03:39.223Z,101484.23
2018-05-31T09:06:06.831Z,101489.72
2018-05-31T09:08:34.592Z,101487.77
2018-05-31T09:20:12.304Z,101487.16
2018-05-31T09:22:39.938Z,101485.31
2018-05-31T09:25:07.527Z,101482.91
2018-05-31T09:27:35.144Z,101486.50
2018-05-31T09:39:14.946Z,101485.30
2018-05-31T09:41:42.558Z,101486.67
2018-05-31T09:44:10.184Z,101489.80
2018-05-31T09:55:47.241Z,101487.47
2018-05-31T09:58:15.414Z,101485.23
2018-05-31T10:00:43.078Z,101490.28
2018-05-31T10:12:19.695Z,101481.12
2018-05-31T10:14:47.361Z,101477.52
2018-05-31T10:17:14.995Z,101478.66
2018-05-31T10:28:50.946Z,101482.88
2018-05-31T10:31:18.595Z,101484.04
2018-05-31T10:33:46.655Z,101484.87
2018-05-31T10:36:14.324Z,101484.65
2018-05-31T10:44:21.251Z,101484.09
2018-05-31T10:46:48.894Z,101482.36
2018-05-31T10:49:19.349Z,101482.95
2018-05-31T10:51:46.901Z,101484.87
2018-05-31T11:03:25.751Z,101485.48
2018-05-31T11:05:53.330Z,101482.88
2018-05-31T11:08:20.896Z,101487.34
2018-05-31T11:10:48.497Z,101482.72
2018-05-31T11:22:20.325Z,101482.38
2018-05-31T11:24:47.950Z,101482.55
2018-05-31T11:27:15.588Z,101477.61
2018-05-31T11:38:51.455Z,101475.70
2018-05-31T11:41:19.075Z,101477.70
2018-05-31T11:43:48.698Z,101473.63
2018-05-31T11:55:13.648Z,101474.18
2018-05-31T11:57:41.398Z,101464.09
2018-05-31T12:00:09.680Z,101468.92
2018-05-31T12:11:45.272Z,101469.09
2018-05-31T12:14:12.847Z,101476.91
2018-05-31T12:16:40.432Z,101474.61
2018-05-31T12:30:57.070Z,101470.21
2018-05-31T12:33:24.895Z,101467.19
2018-05-31T12:35:52.794Z,101465.13
2018-05-31T12:47:27.976Z,101460.06
2018-05-31T12:49:55.631Z,101460.75
2018-05-31T12:52:23.255Z,101457.41
2018-05-31T13:03:59.809Z,101448.97
2018-05-31T13:06:27.521Z,101449.02
2018-05-31T13:08:55.220Z,101451.53
2018-05-31T13:20:32.425Z,101450.64
2018-05-31T13:23:02.370Z,101446.67
2018-05-31T13:59:08.736Z,101434.39
2018-05-31T14:47:25.921Z,101482.48
2018-05-31T14:49:53.655Z,101479.44
2018-05-31T17:21:53.236Z,101513.25
2018-05-31T17:42:28.295Z,101522.50
2018-05-31T17:53:41.260Z,101526.66
2018-05-31T17:56:08.957Z,101530.49
2018-05-31T17:58:36.592Z,101531.81
2018-05-31T18:04:06.549Z,101528.34
2018-05-31T18:06:49.137Z,101534.24
2018-05-31T18:12:19.959Z,101538.13
2018-05-31T18:14:47.563Z,101536.44
2018-05-31T18:17:15.154Z,101542.22
2018-05-31T18:19:42.921Z,101539.17
2018-05-31T18:27:32.920Z,101541.42
2018-05-31T18:30:00.466Z,101541.30
2018-05-31T18:32:28.147Z,101549.50
2018-05-31T18:34:55.772Z,101549.27
2018-05-31T18:46:29.266Z,101557.02
2018-05-31T18:48:56.916Z,101566.44
2018-05-31T18:51:24.501Z,101568.11
2018-05-31T19:02:38.425Z,101572.35
2018-05-31T19:05:06.031Z,101567.66
2018-05-31T19:07:33.724Z,101572.11
2018-05-31T19:10:02.775Z,101565.11
2018-05-31T19:21:20.833Z,101582.48
2018-05-31T19:23:48.428Z,101579.89
2018-05-31T19:26:16.606Z,101585.27
2018-05-31T19:37:59.109Z,101600.45
2018-05-31T19:40:33.789Z,101603.03
2018-05-31T20:46:40.633Z,101634.39
2018-05-31T20:49:08.352Z,101639.73
2018-05-31T20:51:35.987Z,101646.80
2018-05-31T21:03:13.246Z,101646.03
2018-05-31T21:05:40.819Z,101650.84
2018-05-31T21:19:51.273Z,101649.91
2018-05-31T21:22:18.833Z,101647.98
2018-05-31T21:24:46.471Z,101651.06
2018-05-31T21:27:14.450Z,101652.38
2018-05-31T21:38:51.331Z,101649.23
2018-05-31T21:41:19.032Z,101650.47
2018-05-31T21:43:46.639Z,101652.21
2018-05-31T21:55:22.751Z,101652.69
2018-05-31T21:57:50.366Z,101659.25
2018-05-31T22:00:29.830Z,101661.77
2018-05-31T22:12:06.407Z,101674.04
2018-05-31T22:14:34.172Z,101673.19
2018-05-31T22:17:01.729Z,101670.13
2018-05-31T22:28:48.990Z,101664.20
2018-05-31T22:31:16.617Z,101667.81
2018-05-31T22:33:46.485Z,101674.42
2018-05-31T22:45:26.369Z,101680.61
2018-05-31T22:47:54.783Z,101681.63
2018-05-31T22:50:22.415Z,101676.55
2018-05-31T22:52:50.911Z,101676.28
2018-05-31T22:57:58.214Z,101675.30
2018-05-31T23:05:40.451Z,101682.11
2018-05-31T23:08:08.090Z,101683.95
2018-05-31T23:10:35.732Z,101684.84
2018-05-31T23:21:10.232Z,101686.07
2018-05-31T23:23:37.803Z,101688.20
2018-05-31T23:26:05.374Z,101693.41
2018-05-31T23:37:36.780Z,101690.08
2018-05-31T23:40:04.369Z,101688.83
2018-05-31T23:42:32.010Z,101691.52
2018-05-31T23:44:59.648Z,101692.88
2018-05-31T23:47:29.931Z,101689.51
2018-05-31T23:55:36.078Z,101687.87
2018-05-31T23:58:03.687Z,101691.41
